EmailTwitter


Surface observations / Quebec / CYHU (71371)

Regions: Quebec | Canada | USA | Europe | France | UK | Elsewhere
Station
Display
Info & Location for CYHU (71371) | Help decoding METAR

Weather Conditions observed on 2018/05/26 at 08:00 UTC at MONTREAL/ST HUBE, QB (CYHU)

Sky conditions: overcast.

Temperature: 17.0 Celsius.

Dewpoint: 15.0 Celsius.

Relative Humidity: 88%

Humidex: 21.

Winds: Southwest at 13 km/h or 7 knots.

Mean Sea level Pressure: 100.37 kilopascals.

Altimeter Setting (QNH): 100.37 kilopascals or 29.64 inches of mercury.

Horizontal visibility: 9.00 statute miles or 14.40 kilometers.

Height of the Ceiling: 3353 metres ( 11000 feet ).

Coded METAR:

CYHU 260800Z AUTO 23007KT 9SM OVC110 17/15 A2964 RMK SLP037 DENSITY ALT 700FT=